createdAt,value
2023-04-25T00:01:31.510Z,99164.56
2023-04-25T00:03:58.767Z,99165.72
2023-04-25T00:06:27.749Z,99156.03
2023-04-25T00:08:54.604Z,99158.44
2023-04-25T00:11:21.783Z,99160.41
2023-04-25T00:13:48.932Z,99166.94
2023-04-25T00:16:16.869Z,99162.94
2023-04-25T00:18:43.966Z,99159.13
2023-04-25T00:21:11.317Z,99162.44
2023-04-25T00:23:39.692Z,99156.88
2023-04-25T00:26:34.998Z,99157.84
2023-04-25T00:29:10.140Z,99159.72
2023-04-25T00:31:46.389Z,99152.00
2023-04-25T00:34:13.291Z,99150.72
2023-04-25T00:36:40.173Z,99147.88
2023-04-25T00:39:08.796Z,99148.94
2023-04-25T00:41:36.605Z,99144.88
2023-04-25T00:44:04.868Z,99142.69
2023-04-25T00:46:32.427Z,99144.06
2023-04-25T00:48:59.395Z,99142.47
2023-04-25T00:51:27.259Z,99134.81
2023-04-25T00:53:55.501Z,99136.09
2023-04-25T00:56:24.203Z,99136.03
2023-04-25T00:58:54.715Z,99133.84
2023-04-25T01:01:21.840Z,99139.03
2023-04-25T01:03:50.804Z,99132.78
2023-04-25T01:06:18.263Z,99133.84
2023-04-25T01:08:45.726Z,99135.66
2023-04-25T01:11:12.759Z,99144.97
2023-04-25T01:13:41.332Z,99130.59
2023-04-25T01:16:08.743Z,99132.00
2023-04-25T01:18:40.251Z,99130.44
2023-04-25T01:21:10.946Z,99130.72
2023-04-25T01:23:41.393Z,99127.84
2023-04-25T01:26:11.105Z,99128.00
2023-04-25T01:28:39.495Z,99123.13
2023-04-25T01:31:06.615Z,99126.81
2023-04-25T01:33:34.114Z,99123.63
2023-04-25T01:36:01.691Z,99126.50
2023-04-25T01:38:30.725Z,99127.13
2023-04-25T01:40:57.973Z,99127.47
2023-04-25T01:43:25.436Z,99116.81
2023-04-25T01:45:53.394Z,99126.72
2023-04-25T01:48:20.475Z,99125.66
2023-04-25T01:50:47.991Z,99122.59
2023-04-25T01:53:15.386Z,99118.63
2023-04-25T01:56:08.346Z,99123.19
2023-04-25T01:58:38.246Z,99115.09
2023-04-25T02:01:12.798Z,99111.19
2023-04-25T02:03:46.775Z,99112.59
2023-04-25T02:06:59.791Z,99106.63
2023-04-25T02:09:35.129Z,99116.81
2023-04-25T02:12:15.107Z,99109.69
2023-04-25T02:15:08.806Z,99108.22
2023-04-25T02:17:54.416Z,99114.88
2023-04-25T02:20:23.569Z,99118.78
2023-04-25T02:22:50.648Z,99108.91
2023-04-25T02:25:18.078Z,99115.72
2023-04-25T02:27:47.380Z,99111.97
2023-04-25T02:30:15.090Z,99113.13
2023-04-25T02:32:42.223Z,99111.78
2023-04-25T02:35:10.939Z,99104.97
2023-04-25T02:37:40.167Z,99106.88
2023-04-25T02:40:08.963Z,99109.66
2023-04-25T02:42:37.130Z,99107.81
2023-04-25T02:45:06.836Z,99109.06
2023-04-25T02:47:35.310Z,99110.19
2023-04-25T02:50:02.201Z,99104.06
2023-04-25T02:52:29.607Z,99107.31
2023-04-25T02:55:04.747Z,99099.97
2023-04-25T02:57:32.920Z,99100.56
2023-04-25T02:59:59.992Z,99098.81
2023-04-25T03:02:47.607Z,99095.66
2023-04-25T03:05:14.849Z,99089.25
2023-04-25T03:07:42.170Z,99084.22
2023-04-25T03:11:01.246Z,99084.16
2023-04-25T03:13:28.639Z,99087.31
2023-04-25T03:16:06.183Z,99087.91
2023-04-25T03:18:36.388Z,99089.81
2023-04-25T03:21:03.803Z,99095.75
2023-04-25T03:23:32.250Z,99101.91
2023-04-25T03:25:59.100Z,99096.47
2023-04-25T03:28:46.393Z,99096.00
2023-04-25T03:31:13.509Z,99099.06
2023-04-25T03:33:41.893Z,99094.66
2023-04-25T03:36:09.620Z,99089.84
2023-04-25T03:38:37.000Z,99093.38
2023-04-25T03:41:05.847Z,99094.66
2023-04-25T03:43:42.908Z,99093.22
2023-04-25T03:46:13.254Z,99088.94
2023-04-25T03:48:42.914Z,99095.41
2023-04-25T03:51:13.822Z,99093.75
2023-04-25T03:53:44.126Z,99089.84
2023-04-25T03:56:20.054Z,99097.56
2023-04-25T03:58:51.327Z,99102.56
2023-04-25T04:01:20.672Z,99106.75
2023-04-25T04:03:49.905Z,99102.56
2023-04-25T04:06:17.937Z,99104.66
2023-04-25T04:08:48.852Z,99103.63
2023-04-25T04:11:15.883Z,99100.75
2023-04-25T04:13:42.833Z,99101.94
2023-04-25T04:16:10.232Z,99100.09
2023-04-25T04:18:37.268Z,99099.41
2023-04-25T04:21:07.540Z,99102.41
2023-04-25T04:23:38.997Z,99102.50
2023-04-25T04:26:06.884Z,99106.59
2023-04-25T04:28:51.705Z,99110.34
2023-04-25T04:31:38.887Z,99114.06
2023-04-25T04:34:06.392Z,99118.59
2023-04-25T04:36:36.202Z,99116.19
2023-04-25T04:39:43.721Z,99119.69
2023-04-25T04:42:41.562Z,99118.06
2023-04-25T04:45:19.982Z,99110.19
2023-04-25T04:47:55.960Z,99116.66
2023-04-25T04:50:41.390Z,99108.78
2023-04-25T04:53:29.582Z,99127.66
2023-04-25T04:56:17.613Z,99139.41
2023-04-25T04:58:47.785Z,99142.13
2023-04-25T05:01:35.701Z,99141.50
2023-04-25T05:04:17.765Z,99142.56
2023-04-25T05:07:03.778Z,99149.38
2023-04-25T05:09:54.290Z,99144.81
2023-04-25T05:12:40.137Z,99144.38
2023-04-25T05:15:29.791Z,99137.91
2023-04-25T05:18:23.699Z,99136.50
2023-04-25T05:21:05.828Z,99152.41
2023-04-25T05:23:50.820Z,99146.19
2023-04-25T05:26:46.199Z,99142.88
2023-04-25T05:29:32.313Z,99156.34
2023-04-25T05:32:07.083Z,99148.03
2023-04-25T05:34:34.704Z,99153.81
2023-04-25T05:37:05.815Z,99155.88
2023-04-25T05:39:35.876Z,99153.88
2023-04-25T05:42:27.688Z,99154.63
2023-04-25T05:45:23.162Z,99162.25
2023-04-25T05:48:02.725Z,99147.44
2023-04-25T05:50:58.273Z,99156.44
2023-04-25T05:53:52.824Z,99149.16
2023-04-25T05:56:20.092Z,99145.91
2023-04-25T05:58:53.241Z,99137.47
2023-04-25T06:01:23.289Z,99148.75
2023-04-25T06:03:51.774Z,99146.03
2023-04-25T06:06:19.038Z,99150.63
2023-04-25T06:08:47.178Z,99144.63
2023-04-25T06:11:14.325Z,99145.22
2023-04-25T06:13:42.287Z,99150.53
2023-04-25T06:16:10.997Z,99144.75
2023-04-25T06:18:38.096Z,99152.28
2023-04-25T06:21:05.725Z,99152.16
2023-04-25T06:23:33.699Z,99146.97
2023-04-25T06:26:07.296Z,99147.72
2023-04-25T06:28:38.610Z,99140.75
2023-04-25T06:31:05.829Z,99145.34
2023-04-25T06:33:34.273Z,99143.09
2023-04-25T06:36:01.466Z,99144.53
2023-04-25T06:38:29.005Z,99140.75
2023-04-25T06:40:57.707Z,99139.81
2023-04-25T06:43:26.176Z,99142.75
2023-04-25T06:46:06.432Z,99143.34
2023-04-25T06:48:40.955Z,99158.50
2023-04-25T06:51:08.233Z,99149.47
2023-04-25T06:53:36.840Z,99156.47
2023-04-25T06:56:07.068Z,99151.59
2023-04-25T06:58:53.921Z,99148.41
2023-04-25T07:01:39.313Z,99159.19
2023-04-25T07:04:12.856Z,99160.59
2023-04-25T07:06:46.429Z,99158.25
2023-04-25T07:09:17.593Z,99161.53
2023-04-25T07:11:47.349Z,99170.22
2023-04-25T07:14:14.301Z,99164.59
2023-04-25T07:16:41.532Z,99162.72
2023-04-25T07:19:08.855Z,99177.41
2023-04-25T07:21:37.663Z,99174.94
2023-04-25T07:24:07.158Z,99173.91
2023-04-25T07:26:38.993Z,99171.91
2023-04-25T07:29:17.300Z,99184.00
2023-04-25T07:31:44.295Z,99167.25
2023-04-25T07:34:11.280Z,99174.22
2023-04-25T07:36:40.666Z,99178.34
2023-04-25T07:39:08.584Z,99176.63
2023-04-25T07:41:35.872Z,99182.97
2023-04-25T07:44:02.874Z,99184.84
2023-04-25T07:46:31.887Z,99181.66
2023-04-25T07:48:59.072Z,99192.91
2023-04-25T07:51:25.995Z,99185.16
2023-04-25T07:53:56.780Z,99196.66
2023-04-25T07:56:23.860Z,99202.63
2023-04-25T07:58:52.875Z,99198.44
2023-04-25T08:01:20.905Z,99195.22
2023-04-25T08:03:56.512Z,99210.72
2023-04-25T08:06:30.849Z,99198.84
2023-04-25T08:09:09.451Z,99212.09
2023-04-25T08:11:39.905Z,99211.72
2023-04-25T08:14:10.686Z,99211.66
2023-04-25T08:16:39.013Z,99218.13
2023-04-25T08:19:07.530Z,99223.78
2023-04-25T08:21:35.313Z,99221.47
2023-04-25T08:24:06.551Z,99226.41
2023-04-25T08:26:39.500Z,99228.41
2023-04-25T08:29:07.413Z,99237.97
2023-04-25T08:31:38.201Z,99238.56
2023-04-25T08:34:08.257Z,99243.38
2023-04-25T08:36:51.173Z,99240.28
2023-04-25T08:39:27.288Z,99249.47
2023-04-25T08:42:22.705Z,99252.53
2023-04-25T08:44:50.609Z,99264.38
2023-04-25T08:47:23.458Z,99266.06
2023-04-25T08:49:55.947Z,99254.53
2023-04-25T08:52:24.722Z,99265.69
2023-04-25T08:54:56.196Z,99259.44
2023-04-25T08:57:25.891Z,99257.34
2023-04-25T08:59:54.839Z,99264.38
2023-04-25T09:02:23.610Z,99259.13
2023-04-25T09:04:54.854Z,99268.81
2023-04-25T09:07:24.688Z,99276.69
2023-04-25T09:09:54.558Z,99278.34
2023-04-25T09:12:24.350Z,99282.06
2023-04-25T09:15:07.990Z,99278.25
2023-04-25T09:17:57.121Z,99296.28
2023-04-25T09:20:33.370Z,99289.94
2023-04-25T09:23:05.089Z,99290.81
2023-04-25T09:25:37.630Z,99288.94
2023-04-25T09:28:07.704Z,99301.31
2023-04-25T09:30:36.811Z,99305.53
2023-04-25T09:33:14.196Z,99299.88
2023-04-25T09:35:46.845Z,99301.41
2023-04-25T09:38:23.274Z,99306.97
2023-04-25T09:41:17.945Z,99327.84
2023-04-25T09:43:59.310Z,99331.06
2023-04-25T09:46:35.394Z,99332.41
2023-04-25T09:49:08.569Z,99342.06
2023-04-25T09:51:55.541Z,99337.44
2023-04-25T09:54:23.645Z,99339.34
2023-04-25T09:56:55.296Z,99332.25
2023-04-25T09:59:24.338Z,99346.19
2023-04-25T10:01:53.226Z,99349.69
2023-04-25T10:04:34.042Z,99353.81
2023-04-25T10:07:10.513Z,99356.66
2023-04-25T10:09:40.394Z,99353.88
2023-04-25T10:12:08.371Z,99358.38
2023-04-25T10:14:36.794Z,99360.81
2023-04-25T10:17:04.673Z,99367.13
2023-04-25T10:19:33.433Z,99370.41
2023-04-25T10:22:09.311Z,99369.66
2023-04-25T10:24:39.871Z,99374.22
2023-04-25T10:27:08.186Z,99379.84
2023-04-25T10:29:36.863Z,99380.41
2023-04-25T10:32:04.711Z,99381.22
2023-04-25T10:34:43.954Z,99383.94
2023-04-25T10:37:12.682Z,99390.22
2023-04-25T10:39:41.938Z,99385.13
2023-04-25T10:42:09.683Z,99390.81
2023-04-25T10:44:39.257Z,99394.09
2023-04-25T10:47:09.229Z,99389.09
2023-04-25T10:49:38.844Z,99384.91
2023-04-25T10:52:25.212Z,99398.34
2023-04-25T10:54:54.827Z,99397.97
2023-04-25T10:57:39.850Z,99402.34
2023-04-25T11:00:15.970Z,99398.44
2023-04-25T11:02:46.638Z,99395.69
2023-04-25T11:05:24.170Z,99399.13
2023-04-25T11:10:27.445Z,99396.81
2023-04-25T11:12:54.646Z,99400.13
2023-04-25T11:15:23.396Z,99405.44
2023-04-25T11:17:53.751Z,99403.09
2023-04-25T11:20:21.595Z,99401.38
2023-04-25T11:22:50.369Z,99397.31
2023-04-25T11:25:18.484Z,99400.88
2023-04-25T11:27:52.253Z,99402.69
2023-04-25T11:30:23.296Z,99400.03
2023-04-25T11:32:50.316Z,99405.28
2023-04-25T11:35:17.774Z,99402.72
2023-04-25T11:37:45.462Z,99409.13
2023-04-25T11:40:13.017Z,99413.88
2023-04-25T11:42:45.150Z,99410.50
2023-04-25T11:45:13.431Z,99411.03
2023-04-25T11:47:42.944Z,99420.94
2023-04-25T11:50:12.890Z,99416.38
2023-04-25T11:52:40.986Z,99419.94
2023-04-25T11:55:11.700Z,99414.00
2023-04-25T11:57:41.895Z,99417.59
2023-04-25T12:00:18.090Z,99414.75
2023-04-25T12:02:52.763Z,99415.34
2023-04-25T12:05:32.078Z,99417.47
2023-04-25T12:08:11.418Z,99425.41
2023-04-25T12:10:40.998Z,99421.72
2023-04-25T12:13:25.846Z,99421.31
2023-04-25T12:15:56.030Z,99425.25
2023-04-25T12:18:27.088Z,99428.25
2023-04-25T12:20:55.421Z,99428.56
2023-04-25T12:23:27.098Z,99429.19
2023-04-25T12:25:54.401Z,99430.00
2023-04-25T12:28:23.926Z,99442.13
2023-04-25T12:30:56.527Z,99437.16
2023-04-25T12:33:24.133Z,99430.69
2023-04-25T12:35:53.388Z,99429.88
2023-04-25T12:38:26.144Z,99434.78
2023-04-25T12:40:53.574Z,99433.34
2023-04-25T12:43:21.061Z,99436.44
2023-04-25T12:45:49.695Z,99433.34
2023-04-25T12:48:18.843Z,99441.72
2023-04-25T12:50:46.847Z,99436.63
2023-04-25T12:53:17.048Z,99445.28
2023-04-25T12:55:44.278Z,99444.91
2023-04-25T12:58:11.891Z,99442.41
2023-04-25T13:00:38.868Z,99446.28
2023-04-25T13:03:10.549Z,99454.59
2023-04-25T13:05:38.724Z,99449.16
2023-04-25T13:08:06.238Z,99443.25
2023-04-25T13:10:34.765Z,99444.00
2023-04-25T13:13:01.818Z,99441.00
2023-04-25T13:15:28.985Z,99445.28
2023-04-25T13:17:56.824Z,99447.66
2023-04-25T13:20:25.160Z,99453.78
2023-04-25T13:22:52.233Z,99449.88
2023-04-25T13:25:19.186Z,99453.16
2023-04-25T13:27:47.716Z,99456.53
2023-04-25T13:31:04.649Z,99447.75
2023-04-25T13:33:31.949Z,99448.34
2023-04-25T13:35:58.937Z,99454.66
2023-04-25T13:38:27.935Z,99453.53
2023-04-25T13:40:55.167Z,99457.81
2023-04-25T13:43:23.852Z,99458.03
2023-04-25T13:45:54.858Z,99452.13
2023-04-25T13:48:22.725Z,99455.91
2023-04-25T13:50:50.599Z,99455.00
2023-04-25T13:53:32.983Z,99454.72
2023-04-25T13:56:02.723Z,99452.09
2023-04-25T13:58:31.147Z,99460.25
2023-04-25T14:00:57.959Z,99461.22
2023-04-25T14:03:26.542Z,99476.84
2023-04-25T14:05:53.920Z,99477.16
2023-04-25T14:08:21.093Z,99468.88
2023-04-25T14:10:48.189Z,99470.88
2023-04-25T14:13:15.256Z,99472.56
2023-04-25T14:15:43.943Z,99466.88
2023-04-25T14:18:10.960Z,99464.91
2023-04-25T14:20:39.182Z,99469.59
2023-04-25T14:23:06.348Z,99461.84
2023-04-25T14:25:33.801Z,99474.56
2023-04-25T14:28:00.783Z,99468.19
2023-04-25T14:30:27.660Z,99470.41
2023-04-25T14:32:56.161Z,99477.28
2023-04-25T14:35:23.061Z,99478.13
2023-04-25T14:37:50.380Z,99480.94
2023-04-25T14:40:17.565Z,99473.44
2023-04-25T14:42:44.592Z,99482.69
2023-04-25T14:45:13.027Z,99471.28
2023-04-25T14:47:41.213Z,99477.91
2023-04-25T14:50:12.151Z,99472.72
2023-04-25T14:52:39.115Z,99476.38
2023-04-25T14:55:08.199Z,99481.66
2023-04-25T14:57:36.203Z,99477.50
2023-04-25T15:00:05.955Z,99483.34
2023-04-25T15:02:33.399Z,99486.16
2023-04-25T15:05:01.165Z,99480.56
2023-04-25T15:07:32.427Z,99479.16
2023-04-25T15:09:59.665Z,99481.44
2023-04-25T15:12:26.759Z,99489.38
2023-04-25T15:14:53.784Z,99487.22
2023-04-25T15:17:20.705Z,99485.78
2023-04-25T15:19:47.692Z,99491.09
2023-04-25T15:22:14.736Z,99495.59
2023-04-25T15:24:44.200Z,99490.59
2023-04-25T15:27:11.207Z,99498.88
2023-04-25T15:29:38.769Z,99497.78
2023-04-25T15:32:05.916Z,99498.75
2023-04-25T15:34:34.696Z,99498.28
2023-04-25T15:37:02.255Z,99499.94
2023-04-25T15:39:30.961Z,99502.66
2023-04-25T15:41:59.268Z,99500.56
2023-04-25T15:44:26.136Z,99500.66
2023-04-25T15:46:55.063Z,99505.50
2023-04-25T15:49:22.345Z,99509.84
2023-04-25T15:51:49.350Z,99510.94
2023-04-25T15:54:16.373Z,99507.19
2023-04-25T15:56:44.628Z,99507.28
2023-04-25T15:59:13.457Z,99507.66
2023-04-25T16:01:40.792Z,99508.34
2023-04-25T16:04:07.975Z,99511.91
2023-04-25T16:06:37.014Z,99499.84
2023-04-25T16:09:04.044Z,99509.19
2023-04-25T16:11:31.994Z,99508.72
2023-04-25T16:13:59.118Z,99509.06
2023-04-25T16:16:27.469Z,99504.59
2023-04-25T16:18:55.190Z,99509.41
2023-04-25T16:21:22.139Z,99515.78
2023-04-25T16:23:49.898Z,99518.41
2023-04-25T16:26:16.867Z,99530.28
2023-04-25T16:28:43.712Z,99528.28
2023-04-25T16:31:10.621Z,99528.22
2023-04-25T16:33:38.848Z,99536.13
2023-04-25T16:36:07.441Z,99545.41
2023-04-25T16:38:34.828Z,99535.13
2023-04-25T16:41:02.127Z,99543.97
2023-04-25T16:43:31.123Z,99545.13
2023-04-25T16:45:58.046Z,99546.50
2023-04-25T16:48:27.251Z,99559.53
2023-04-25T16:50:57.193Z,99553.69
2023-04-25T16:56:28.090Z,99556.28
2023-04-25T16:58:59.068Z,99559.44
2023-04-25T17:01:27.206Z,99564.94
2023-04-25T17:03:55.640Z,99565.72
2023-04-25T17:06:24.972Z,99565.34
2023-04-25T17:08:52.280Z,99574.97
2023-04-25T17:11:19.602Z,99574.13
2023-04-25T17:13:46.615Z,99574.19
2023-04-25T17:16:14.872Z,99578.50
2023-04-25T17:18:42.429Z,99576.22
2023-04-25T17:21:09.486Z,99587.16
2023-04-25T17:23:39.764Z,99595.94
2023-04-25T17:26:09.155Z,99589.47
2023-04-25T17:28:36.463Z,99596.63
2023-04-25T17:31:03.704Z,99584.88
2023-04-25T17:33:31.003Z,99590.34
2023-04-25T17:35:57.858Z,99601.59
2023-04-25T17:38:25.251Z,99603.94
2023-04-25T17:40:53.783Z,99605.78
2023-04-25T17:43:21.009Z,99608.50
2023-04-25T17:45:48.030Z,99606.66
2023-04-25T17:48:15.063Z,99615.16
2023-04-25T17:50:42.065Z,99617.47
2023-04-25T17:53:09.136Z,99620.84
2023-04-25T17:55:36.230Z,99621.13
2023-04-25T17:58:04.765Z,99614.50
2023-04-25T18:00:31.762Z,99618.09
2023-04-25T18:03:00.892Z,99617.91
2023-04-25T18:05:29.860Z,99619.19
2023-04-25T18:07:58.237Z,99624.00
2023-04-25T18:10:25.203Z,99615.31
2023-04-25T18:12:52.298Z,99632.81
2023-04-25T18:15:23.912Z,99637.56
2023-04-25T18:17:50.870Z,99641.50
2023-04-25T18:20:17.917Z,99645.66
2023-04-25T18:22:45.868Z,99650.09
2023-04-25T18:25:14.346Z,99653.88
2023-04-25T18:27:41.915Z,99651.19
2023-04-25T18:30:11.391Z,99658.28
2023-04-25T18:32:40.050Z,99663.69
2023-04-25T18:35:10.319Z,99661.19
2023-04-25T18:37:37.541Z,99670.53
2023-04-25T18:40:06.608Z,99666.59
2023-04-25T18:42:34.262Z,99673.00
2023-04-25T18:45:01.215Z,99681.31
2023-04-25T18:47:28.172Z,99672.78
2023-04-25T18:54:04.174Z,99689.00
2023-04-25T18:56:31.198Z,99696.47
2023-04-25T18:58:58.455Z,99692.53
2023-04-25T19:01:26.476Z,99706.47
2023-04-25T19:03:54.404Z,99707.09
2023-04-25T19:06:25.966Z,99714.16
2023-04-25T19:08:54.066Z,99707.09
2023-04-25T19:11:22.959Z,99709.81
2023-04-25T19:13:51.205Z,99718.75
2023-04-25T19:16:40.069Z,99718.13
2023-04-25T19:19:09.432Z,99727.06
2023-04-25T19:21:36.572Z,99720.84
2023-04-25T19:24:04.810Z,99728.31
2023-04-25T19:26:34.605Z,99734.34
2023-04-25T19:29:07.876Z,99731.84
2023-04-25T19:31:37.452Z,99724.81
2023-04-25T19:34:06.464Z,99731.06
2023-04-25T19:36:35.327Z,99749.13
2023-04-25T19:39:10.212Z,99745.22
2023-04-25T19:41:42.518Z,99736.47
2023-04-25T19:44:10.369Z,99735.25
2023-04-25T19:46:37.629Z,99738.75
2023-04-25T19:49:07.093Z,99740.44
2023-04-25T19:51:35.863Z,99744.38
2023-04-25T19:54:02.792Z,99748.75
2023-04-25T19:56:30.647Z,99736.50
2023-04-25T19:58:58.995Z,99735.22
2023-04-25T20:01:25.974Z,99737.09
2023-04-25T20:03:53.396Z,99744.19
2023-04-25T20:06:20.872Z,99749.38
2023-04-25T20:08:47.919Z,99752.91
2023-04-25T20:11:17.642Z,99756.00
2023-04-25T20:13:44.669Z,99758.06
2023-04-25T20:16:13.273Z,99765.72
2023-04-25T20:18:40.288Z,99763.25
2023-04-25T20:21:07.722Z,99751.41
2023-04-25T20:23:34.697Z,99765.75
2023-04-25T20:26:01.753Z,99766.16
2023-04-25T20:28:28.804Z,99760.16
2023-04-25T20:30:55.732Z,99769.69
2023-04-25T20:33:24.004Z,99767.19
2023-04-25T20:35:52.508Z,99766.16
2023-04-25T20:38:19.405Z,99764.06
2023-04-25T20:40:46.428Z,99768.22
2023-04-25T20:43:13.424Z,99771.34
2023-04-25T20:45:40.399Z,99768.66
2023-04-25T20:48:07.903Z,99773.84
2023-04-25T20:50:36.276Z,99776.97
2023-04-25T20:53:03.409Z,99776.75
2023-04-25T20:55:30.221Z,99772.59
2023-04-25T20:57:58.166Z,99774.66
2023-04-25T21:00:25.294Z,99776.31
2023-04-25T21:02:52.532Z,99771.13
2023-04-25T21:05:20.221Z,99768.41
2023-04-25T21:07:48.613Z,99774.06
2023-04-25T21:10:16.588Z,99775.09
2023-04-25T21:12:44.149Z,99779.81
2023-04-25T21:15:12.650Z,99774.25
2023-04-25T21:17:40.247Z,99776.72
2023-04-25T21:20:09.308Z,99777.53
2023-04-25T21:22:36.623Z,99780.84
2023-04-25T21:25:06.047Z,99781.47
2023-04-25T21:27:33.654Z,99778.97
2023-04-25T21:30:00.589Z,99778.38
2023-04-25T21:32:27.594Z,99789.56
2023-04-25T21:34:54.785Z,99787.66
2023-04-25T21:37:21.650Z,99786.22
2023-04-25T21:39:48.506Z,99784.38
2023-04-25T21:42:16.895Z,99795.97
2023-04-25T21:44:43.855Z,99794.31
2023-04-25T21:47:10.862Z,99793.69
2023-04-25T21:49:37.955Z,99804.91
2023-04-25T21:52:05.633Z,99807.41
2023-04-25T21:54:32.541Z,99811.75
2023-04-25T21:56:59.378Z,99813.00
2023-04-25T21:59:27.737Z,99813.63
2023-04-25T22:01:55.603Z,99807.59
2023-04-25T22:04:22.721Z,99810.50
2023-04-25T22:06:50.214Z,99810.50
2023-04-25T22:09:17.161Z,99812.81
2023-04-25T22:11:44.091Z,99822.16
2023-04-25T22:14:13.291Z,99821.75
2023-04-25T22:16:41.730Z,99821.34
2023-04-25T22:19:08.745Z,99821.16
2023-04-25T22:21:36.154Z,99827.34
2023-04-25T22:24:03.240Z,99831.53
2023-04-25T22:26:30.254Z,99833.59
2023-04-25T22:28:57.377Z,99834.84
2023-04-25T22:31:24.612Z,99832.53
2023-04-25T22:33:52.941Z,99838.75
2023-04-25T22:36:19.883Z,99839.97
2023-04-25T22:38:47.450Z,99830.22
2023-04-25T22:41:14.488Z,99832.94
2023-04-25T22:43:41.589Z,99830.44
2023-04-25T22:46:15.778Z,99839.56
2023-04-25T22:48:42.804Z,99840.38
2023-04-25T22:51:11.742Z,99845.78
2023-04-25T22:53:41.416Z,99846.81
2023-04-25T22:56:09.505Z,99845.38
2023-04-25T22:58:36.744Z,99835.19
2023-04-25T23:01:05.275Z,99845.56
2023-04-25T23:03:32.683Z,99838.91
2023-04-25T23:06:00.665Z,99838.50
2023-04-25T23:08:29.250Z,99845.94
2023-04-25T23:10:56.113Z,99843.84
2023-04-25T23:13:23.097Z,99844.91
2023-04-25T23:15:50.106Z,99843.66
2023-04-25T23:18:17.238Z,99844.00
2023-04-25T23:20:44.457Z,99851.25
2023-04-25T23:23:11.489Z,99847.75
2023-04-25T23:25:39.795Z,99854.34
2023-04-25T23:28:07.164Z,99847.88
2023-04-25T23:30:34.112Z,99844.31
2023-04-25T23:33:01.214Z,99855.50
2023-04-25T23:35:28.622Z,99855.28
2023-04-25T23:37:55.676Z,99850.31
2023-04-25T23:40:23.274Z,99860.22
2023-04-25T23:42:51.496Z,99857.75
2023-04-25T23:45:18.555Z,99855.88
2023-04-25T23:47:45.520Z,99851.75
2023-04-25T23:50:12.852Z,99858.34
2023-04-25T23:52:39.724Z,99858.97
2023-04-25T23:55:07.492Z,99850.25
2023-04-25T23:57:34.363Z,99858.34
